createdAt,value
2018-12-19T00:01:27.244Z,91.47
2018-12-19T00:03:55.970Z,93.20
2018-12-19T00:06:25.561Z,88.97
2018-12-19T00:08:54.221Z,85.00
2018-12-19T00:11:22.934Z,96.40
2018-12-19T00:13:51.703Z,86.47
2018-12-19T00:16:20.435Z,96.87
2018-12-19T00:18:49.108Z,100.80
2018-12-19T00:21:17.997Z,99.17
2018-12-19T00:23:46.787Z,92.13
2018-12-19T00:26:15.477Z,97.13
2018-12-19T00:28:44.171Z,102.83
2018-12-19T00:31:12.911Z,101.53
2018-12-19T00:33:41.552Z,106.77
2018-12-19T00:36:10.271Z,90.37
2018-12-19T00:38:38.984Z,98.27
2018-12-19T00:41:07.807Z,110.80
2018-12-19T00:43:36.475Z,87.97
2018-12-19T00:46:05.172Z,95.80
2018-12-19T00:48:33.877Z,88.57
2018-12-19T00:51:02.521Z,91.97
2018-12-19T00:53:31.224Z,90.57
2018-12-19T00:55:59.862Z,106.23
2018-12-19T00:58:28.570Z,98.20
2018-12-19T01:00:57.279Z,93.93
2018-12-19T01:03:25.986Z,88.83
2018-12-19T01:05:54.707Z,89.77
2018-12-19T01:08:24.466Z,98.73
2018-12-19T01:10:53.290Z,93.13
2018-12-19T01:13:21.968Z,100.43
2018-12-19T01:15:50.700Z,98.43
2018-12-19T01:18:19.378Z,87.37
2018-12-19T01:20:48.081Z,89.47
2018-12-19T01:23:16.784Z,88.20
2018-12-19T01:25:45.470Z,89.37
2018-12-19T01:28:14.261Z,99.10
2018-12-19T01:30:42.952Z,84.13
2018-12-19T01:33:11.637Z,84.13
2018-12-19T01:35:40.383Z,82.43
2018-12-19T01:38:09.077Z,73.90
2018-12-19T01:40:37.790Z,86.13
2018-12-19T01:43:06.484Z,84.07
2018-12-19T01:45:35.218Z,86.37
2018-12-19T01:48:04.057Z,69.67
2018-12-19T01:50:32.692Z,86.17
2018-12-19T01:53:01.376Z,81.90
2018-12-19T01:55:30.062Z,86.63
2018-12-19T01:57:58.785Z,78.67
2018-12-19T02:00:34.203Z,77.03
2018-12-19T02:03:02.893Z,86.37
2018-12-19T02:05:31.586Z,75.97
2018-12-19T02:08:00.297Z,72.80
2018-12-19T02:10:28.980Z,76.93
2018-12-19T02:12:57.667Z,77.20
2018-12-19T02:15:26.321Z,80.53
2018-12-19T02:17:55.037Z,77.90
2018-12-19T02:20:23.713Z,81.17
2018-12-19T02:22:52.405Z,80.07
2018-12-19T02:25:21.225Z,82.33
2018-12-19T02:27:49.903Z,79.93
2018-12-19T02:30:18.588Z,79.17
2018-12-19T02:32:47.315Z,69.67
2018-12-19T02:35:16.096Z,72.63
2018-12-19T02:37:44.721Z,77.80
2018-12-19T02:40:13.405Z,71.10
2018-12-19T02:42:42.056Z,67.60
2018-12-19T02:45:10.791Z,79.67
2018-12-19T02:47:39.421Z,66.60
2018-12-19T02:50:08.145Z,68.13
2018-12-19T02:52:36.804Z,72.80
2018-12-19T02:55:05.498Z,74.03
2018-12-19T02:57:34.121Z,75.53
2018-12-19T03:00:02.837Z,67.37
2018-12-19T03:02:31.560Z,68.27
2018-12-19T03:05:00.236Z,61.50
2018-12-19T03:07:28.942Z,63.87
2018-12-19T03:09:57.620Z,76.80
2018-12-19T03:12:26.327Z,59.87
2018-12-19T03:14:55.012Z,64.37
2018-12-19T03:17:23.672Z,61.63
2018-12-19T03:19:52.328Z,60.30
2018-12-19T03:22:21.035Z,62.33
2018-12-19T03:24:49.761Z,67.60
2018-12-19T03:27:18.490Z,65.40
2018-12-19T03:29:47.155Z,65.00
2018-12-19T03:32:15.905Z,75.07
2018-12-19T03:34:44.669Z,80.00
2018-12-19T03:37:13.326Z,73.77
2018-12-19T03:39:41.962Z,59.77
2018-12-19T03:42:10.647Z,62.43
2018-12-19T03:44:39.308Z,59.87
2018-12-19T03:47:07.988Z,61.53
2018-12-19T03:49:37.066Z,66.00
2018-12-19T03:52:05.742Z,65.97
2018-12-19T03:54:34.378Z,60.87
2018-12-19T03:57:04.505Z,66.97
2018-12-19T03:59:33.355Z,64.80
2018-12-19T04:02:02.073Z,55.37
2018-12-19T04:04:30.718Z,66.63
2018-12-19T04:06:59.479Z,69.80
2018-12-19T04:09:28.134Z,64.73
2018-12-19T04:11:56.832Z,71.97
2018-12-19T04:14:25.504Z,61.27
2018-12-19T04:16:54.213Z,62.93
2018-12-19T04:19:22.877Z,58.20
2018-12-19T04:21:51.646Z,67.43
2018-12-19T04:24:20.286Z,71.70
2018-12-19T04:26:49.011Z,67.30
2018-12-19T04:29:17.680Z,77.33
2018-12-19T04:31:46.312Z,76.67
2018-12-19T04:34:14.990Z,76.50
2018-12-19T04:36:43.626Z,70.47
2018-12-19T04:39:12.327Z,74.23
2018-12-19T04:41:41.062Z,73.80
2018-12-19T04:44:09.959Z,73.93
2018-12-19T04:46:38.838Z,74.13
2018-12-19T04:49:07.762Z,77.00
2018-12-19T04:51:36.717Z,71.10
2018-12-19T04:54:05.543Z,64.63
2018-12-19T04:56:34.232Z,67.37
2018-12-19T04:59:02.927Z,60.20
2018-12-19T05:01:31.601Z,74.40
2018-12-19T05:04:00.296Z,69.43
2018-12-19T05:06:29.017Z,72.83
2018-12-19T05:08:57.727Z,70.33
2018-12-19T05:11:26.380Z,89.23
2018-12-19T05:13:55.064Z,74.87
2018-12-19T05:16:23.927Z,68.83
2018-12-19T05:18:52.635Z,73.07
2018-12-19T05:21:21.294Z,86.10
2018-12-19T05:23:49.987Z,64.63
2018-12-19T05:26:18.712Z,80.83
2018-12-19T05:28:47.380Z,78.73
2018-12-19T05:31:16.028Z,84.03
2018-12-19T05:33:44.723Z,72.57
2018-12-19T05:36:13.366Z,75.57
2018-12-19T05:38:42.048Z,79.87
2018-12-19T05:41:10.719Z,74.60
2018-12-19T05:43:39.378Z,74.10
2018-12-19T05:46:08.101Z,79.73
2018-12-19T05:48:36.781Z,68.77
2018-12-19T05:51:05.467Z,80.63
2018-12-19T05:53:34.119Z,77.20
2018-12-19T05:56:02.825Z,77.60
2018-12-19T05:58:31.479Z,82.13
2018-12-19T06:01:00.173Z,76.63
2018-12-19T06:03:29.701Z,76.87
2018-12-19T06:05:58.436Z,74.67
2018-12-19T06:08:27.098Z,77.47
2018-12-19T06:10:55.839Z,75.67
2018-12-19T06:13:24.506Z,76.07
2018-12-19T06:15:53.210Z,79.10
2018-12-19T06:18:21.868Z,76.67
2018-12-19T06:20:50.562Z,87.57
2018-12-19T06:23:19.235Z,76.23
2018-12-19T06:25:47.939Z,85.50
2018-12-19T06:28:16.685Z,72.30
2018-12-19T06:30:45.400Z,64.90
2018-12-19T06:33:14.279Z,70.23
2018-12-19T06:35:43.419Z,68.73
2018-12-19T06:38:12.106Z,66.67
2018-12-19T06:40:40.800Z,66.10
2018-12-19T06:43:09.507Z,66.83
2018-12-19T06:45:38.165Z,67.00
2018-12-19T06:48:06.904Z,70.03
2018-12-19T06:50:35.554Z,72.47
2018-12-19T06:53:04.246Z,67.77
2018-12-19T06:55:32.892Z,65.17
2018-12-19T06:58:01.590Z,71.20
2018-12-19T07:00:30.259Z,63.03
2018-12-19T07:02:58.947Z,72.53
2018-12-19T07:05:28.033Z,73.17
2018-12-19T07:07:56.763Z,74.17
2018-12-19T07:10:25.438Z,71.93
2018-12-19T07:12:54.141Z,77.30
2018-12-19T07:15:22.871Z,62.97
2018-12-19T07:17:51.570Z,61.43
2018-12-19T07:20:20.297Z,66.83
2018-12-19T07:22:48.940Z,59.97
2018-12-19T07:25:17.679Z,62.90
2018-12-19T07:27:46.320Z,67.00
2018-12-19T07:30:15.015Z,59.50
2018-12-19T07:32:43.688Z,66.90
2018-12-19T07:35:12.551Z,64.80
2018-12-19T07:37:41.190Z,62.40
2018-12-19T07:40:09.899Z,63.33
2018-12-19T07:42:38.568Z,71.00
2018-12-19T07:45:07.260Z,69.37
2018-12-19T07:47:35.888Z,69.53
2018-12-19T07:50:05.954Z,72.10
2018-12-19T07:52:34.647Z,71.93
2018-12-19T07:55:04.546Z,71.13
2018-12-19T07:57:33.423Z,62.17
2018-12-19T08:00:02.071Z,59.50
2018-12-19T08:02:30.778Z,66.10
2018-12-19T08:04:59.457Z,67.50
2018-12-19T08:07:34.075Z,68.63
2018-12-19T08:10:05.309Z,62.33
2018-12-19T08:12:36.179Z,63.13
2018-12-19T08:15:05.570Z,60.20
2018-12-19T08:17:34.248Z,66.10
2018-12-19T08:20:02.937Z,62.27
2018-12-19T08:22:31.609Z,63.27
2018-12-19T08:25:00.254Z,59.60
2018-12-19T08:27:28.987Z,64.13
2018-12-19T08:29:57.627Z,70.53
2018-12-19T08:32:26.316Z,57.67
2018-12-19T08:34:54.976Z,59.20
2018-12-19T08:37:23.660Z,54.77
2018-12-19T08:39:52.317Z,50.83
2018-12-19T08:42:21.039Z,57.87
2018-12-19T08:44:49.733Z,54.67
2018-12-19T08:47:18.525Z,51.80
2018-12-19T08:49:47.363Z,54.27
2018-12-19T08:52:16.048Z,52.33
2018-12-19T08:54:44.826Z,52.40
2018-12-19T08:57:13.509Z,47.53
2018-12-19T08:59:42.238Z,55.57
2018-12-19T09:02:12.050Z,49.23
2018-12-19T09:04:40.857Z,46.43
2018-12-19T09:07:09.534Z,52.30
2018-12-19T09:09:38.232Z,42.53
2018-12-19T09:12:07.059Z,49.40
2018-12-19T09:14:35.786Z,46.73
2018-12-19T09:17:09.557Z,48.80
2018-12-19T09:19:38.659Z,41.33
2018-12-19T09:22:07.329Z,45.13
2018-12-19T09:24:36.019Z,50.27
2018-12-19T09:27:04.714Z,45.20
2018-12-19T09:29:33.548Z,40.27
2018-12-19T09:32:02.262Z,42.10
2018-12-19T09:34:30.906Z,40.33
2018-12-19T09:36:59.597Z,45.00
2018-12-19T09:39:28.285Z,36.67
2018-12-19T09:41:56.922Z,38.63
2018-12-19T09:44:25.631Z,36.90
2018-12-19T09:46:54.339Z,39.47
2018-12-19T09:49:22.984Z,38.67
2018-12-19T09:51:51.685Z,38.23
2018-12-19T09:54:20.393Z,36.93
2018-12-19T09:56:49.090Z,33.10
2018-12-19T09:59:17.781Z,36.73
2018-12-19T10:01:46.723Z,37.03
2018-12-19T10:04:15.391Z,36.27
2018-12-19T10:06:44.242Z,33.90
2018-12-19T10:09:14.925Z,35.90
2018-12-19T10:11:43.719Z,33.60
2018-12-19T10:14:13.491Z,36.53
2018-12-19T10:16:42.183Z,35.30
2018-12-19T10:19:10.858Z,35.43
2018-12-19T10:21:39.568Z,28.83
2018-12-19T10:24:08.205Z,32.87
2018-12-19T10:26:40.295Z,27.30
2018-12-19T10:29:09.111Z,31.33
2018-12-19T10:31:37.903Z,31.37
2018-12-19T10:34:06.634Z,29.57
2018-12-19T10:36:37.929Z,26.30
2018-12-19T10:39:14.616Z,31.30
2018-12-19T10:41:43.352Z,36.27
2018-12-19T10:44:12.307Z,40.97
2018-12-19T10:46:41.179Z,39.00
2018-12-19T10:49:09.932Z,37.90
2018-12-19T10:51:38.935Z,30.77
2018-12-19T10:54:08.217Z,25.97
2018-12-19T10:56:36.995Z,29.00
2018-12-19T10:59:06.113Z,30.87
2018-12-19T11:01:35.333Z,32.63
2018-12-19T11:04:04.945Z,27.83
2018-12-19T11:06:33.742Z,32.03
2018-12-19T11:09:13.015Z,31.13
2018-12-19T11:11:43.645Z,33.33
2018-12-19T11:14:12.791Z,25.80
2018-12-19T11:16:41.883Z,30.70
2018-12-19T11:19:21.798Z,27.93
2018-12-19T11:21:50.791Z,26.20
2018-12-19T11:24:19.670Z,26.80
2018-12-19T11:26:49.193Z,26.87
2018-12-19T11:29:18.831Z,29.30
2018-12-19T11:31:47.775Z,27.27
2018-12-19T11:34:17.170Z,27.83
2018-12-19T11:36:46.330Z,25.93
2018-12-19T11:39:15.459Z,24.10
2018-12-19T11:41:44.314Z,25.43
2018-12-19T11:44:13.091Z,24.27
2018-12-19T11:46:42.138Z,24.23
2018-12-19T11:49:11.518Z,23.70
2018-12-19T11:51:41.629Z,21.63
2018-12-19T11:54:10.570Z,26.17
2018-12-19T11:56:39.394Z,19.67
2018-12-19T11:59:08.245Z,23.53
2018-12-19T12:01:41.386Z,21.00
2018-12-19T12:04:15.200Z,22.93
2018-12-19T12:06:45.606Z,23.63
2018-12-19T12:09:15.490Z,19.27
2018-12-19T12:11:45.790Z,22.50
2018-12-19T12:14:14.993Z,18.63
2018-12-19T12:16:47.208Z,19.47
2018-12-19T12:19:16.785Z,19.63
2018-12-19T12:21:46.104Z,20.93
2018-12-19T12:24:14.951Z,23.20
2018-12-19T12:26:43.795Z,16.07
2018-12-19T12:29:13.040Z,21.57
2018-12-19T12:31:42.587Z,18.60
2018-12-19T12:34:12.556Z,19.63
2018-12-19T12:36:41.356Z,19.13
2018-12-19T12:39:10.211Z,17.40
2018-12-19T12:41:39.084Z,19.87
2018-12-19T12:44:08.069Z,20.90
2018-12-19T12:46:37.693Z,19.33
2018-12-19T12:49:07.083Z,22.30
2018-12-19T12:51:36.286Z,22.07
2018-12-19T12:54:06.092Z,19.10
2018-12-19T12:56:34.866Z,18.37
2018-12-19T12:59:03.836Z,16.70
2018-12-19T13:01:32.681Z,17.87
2018-12-19T13:04:01.685Z,17.93
2018-12-19T13:06:30.648Z,16.87
2018-12-19T13:08:59.538Z,18.93
2018-12-19T13:11:28.342Z,19.03
2018-12-19T13:13:57.350Z,19.17
2018-12-19T13:16:26.517Z,19.70
2018-12-19T13:18:56.382Z,17.77
2018-12-19T13:21:25.340Z,16.37
2018-12-19T13:23:54.109Z,18.80
2018-12-19T13:26:22.921Z,17.73
2018-12-19T13:28:52.413Z,18.77
2018-12-19T13:31:21.238Z,18.03
2018-12-19T13:33:50.043Z,18.67
2018-12-19T13:36:18.926Z,19.73
2018-12-19T13:38:47.825Z,18.20
2018-12-19T13:41:16.775Z,19.73
2018-12-19T13:43:46.062Z,19.00
2018-12-19T13:46:14.857Z,21.83
2018-12-19T13:48:43.665Z,18.57
2018-12-19T13:51:13.697Z,22.53
2018-12-19T13:53:42.986Z,21.33
2018-12-19T13:56:11.797Z,17.07
2018-12-19T13:58:42.062Z,20.33
2018-12-19T14:01:11.152Z,19.00
2018-12-19T14:03:40.140Z,19.93
2018-12-19T14:06:08.878Z,20.73
2018-12-19T14:08:39.339Z,25.50
2018-12-19T14:11:08.349Z,22.57
2018-12-19T14:13:37.470Z,19.07
2018-12-19T14:16:08.274Z,20.57
2018-12-19T14:18:36.945Z,20.97
2018-12-19T14:21:05.607Z,19.63
2018-12-19T14:23:35.110Z,24.37
2018-12-19T14:26:03.952Z,19.67
2018-12-19T14:28:32.848Z,22.30
2018-12-19T14:31:01.515Z,18.23
2018-12-19T14:33:31.030Z,21.97
2018-12-19T14:36:00.280Z,20.77
2018-12-19T14:38:29.074Z,22.27
2018-12-19T14:40:57.965Z,21.47
2018-12-19T14:43:27.046Z,21.33
2018-12-19T14:45:55.878Z,22.53
2018-12-19T14:48:24.713Z,22.40
2018-12-19T14:50:53.626Z,21.10
2018-12-19T14:53:22.636Z,18.37
2018-12-19T14:55:51.997Z,23.00
2018-12-19T14:58:21.104Z,17.50
2018-12-19T15:00:50.117Z,21.23
2018-12-19T15:03:19.958Z,19.13
2018-12-19T15:05:49.802Z,21.83
2018-12-19T15:08:19.659Z,17.83
2018-12-19T15:10:48.937Z,16.73
2018-12-19T15:13:18.116Z,20.00
2018-12-19T15:16:01.911Z,21.27
2018-12-19T15:18:34.428Z,20.33
2018-12-19T15:21:04.659Z,17.97
2018-12-19T15:23:33.674Z,20.03
2018-12-19T15:26:02.827Z,20.57
2018-12-19T15:28:32.228Z,21.80
2018-12-19T15:31:01.257Z,20.57
2018-12-19T15:33:32.615Z,18.17
2018-12-19T15:36:01.964Z,21.13
2018-12-19T15:38:30.878Z,20.23
2018-12-19T15:41:05.273Z,17.43
2018-12-19T15:43:34.217Z,22.63
2018-12-19T15:46:03.339Z,20.67
2018-12-19T15:48:32.189Z,19.43
2018-12-19T15:51:00.950Z,20.80
2018-12-19T15:53:31.338Z,21.63
2018-12-19T15:56:00.383Z,17.27
2018-12-19T15:58:29.346Z,20.93
2018-12-19T16:00:58.125Z,20.03
2018-12-19T16:03:28.100Z,21.23
2018-12-19T16:05:57.912Z,20.47
2018-12-19T16:08:27.611Z,21.53
2018-12-19T16:10:57.403Z,22.03
2018-12-19T16:13:26.288Z,22.93
2018-12-19T16:15:55.289Z,20.13
2018-12-19T16:18:26.892Z,22.53
2018-12-19T16:20:56.273Z,23.43
2018-12-19T16:23:25.164Z,18.93
2018-12-19T16:25:54.200Z,23.43
2018-12-19T16:28:23.672Z,19.13
2018-12-19T16:30:52.626Z,18.50
2018-12-19T16:33:21.664Z,21.90
2018-12-19T16:35:50.633Z,18.37
2018-12-19T16:38:19.528Z,18.87
2018-12-19T16:40:48.812Z,17.53
2018-12-19T16:43:17.756Z,19.60
2018-12-19T16:45:47.272Z,21.13
2018-12-19T16:48:16.020Z,18.17
2018-12-19T16:50:45.733Z,20.57
2018-12-19T16:53:14.718Z,20.07
2018-12-19T16:55:44.524Z,20.77
2018-12-19T16:58:13.524Z,20.27
2018-12-19T17:00:59.584Z,17.77
2018-12-19T17:03:47.315Z,20.67
2018-12-19T17:06:35.182Z,22.30
2018-12-19T17:09:11.578Z,23.50
2018-12-19T17:11:40.359Z,23.10
2018-12-19T17:14:24.625Z,21.67
2018-12-19T17:16:55.487Z,21.60
2018-12-19T17:19:26.843Z,21.60
2018-12-19T17:21:56.314Z,18.37
2018-12-19T17:24:30.789Z,21.87
2018-12-19T17:27:00.300Z,22.90
2018-12-19T17:29:29.833Z,24.17
2018-12-19T17:32:00.417Z,23.10
2018-12-19T17:34:29.938Z,24.87
2018-12-19T17:36:59.183Z,25.20
2018-12-19T17:39:31.089Z,27.70
2018-12-19T17:42:00.371Z,27.93
2018-12-19T17:44:29.827Z,25.03
2018-12-19T17:46:59.033Z,31.20
2018-12-19T17:49:30.491Z,27.30
2018-12-19T17:51:59.958Z,27.10
2018-12-19T17:54:29.301Z,24.63
2018-12-19T17:56:58.883Z,22.57
2018-12-19T17:59:28.144Z,23.97
2018-12-19T18:01:57.406Z,23.87
2018-12-19T18:04:26.762Z,22.70
2018-12-19T18:06:56.283Z,25.37
2018-12-19T18:09:26.124Z,21.73
2018-12-19T18:11:55.377Z,24.47
2018-12-19T18:14:24.619Z,22.57
2018-12-19T18:16:54.012Z,26.67
2018-12-19T18:19:23.565Z,27.67
2018-12-19T18:21:53.120Z,27.93
2018-12-19T18:24:22.845Z,28.90
2018-12-19T18:26:52.143Z,26.90
2018-12-19T18:29:21.390Z,27.43
2018-12-19T18:31:50.718Z,29.37
2018-12-19T18:34:20.196Z,28.13
2018-12-19T18:36:49.490Z,28.27
2018-12-19T18:39:18.728Z,31.30
2018-12-19T18:41:49.119Z,26.93
2018-12-19T18:44:18.488Z,30.03
2018-12-19T18:46:47.714Z,27.17
2018-12-19T18:49:17.022Z,28.37
2018-12-19T18:51:46.392Z,28.60
2018-12-19T18:54:15.810Z,27.13
2018-12-19T18:56:45.430Z,30.83
2018-12-19T18:59:16.888Z,28.63
2018-12-19T19:01:46.365Z,32.13
2018-12-19T19:04:15.617Z,30.40
2018-12-19T19:06:44.827Z,30.73
2018-12-19T19:09:14.031Z,28.93
2018-12-19T19:11:44.017Z,31.33
2018-12-19T19:14:13.513Z,32.23
2018-12-19T19:16:43.108Z,31.83
2018-12-19T19:19:13.125Z,29.93
2018-12-19T19:21:42.502Z,34.47
2018-12-19T19:24:11.931Z,29.83
2018-12-19T19:26:41.259Z,27.97
2018-12-19T19:29:10.735Z,32.37
2018-12-19T19:31:40.240Z,30.40
2018-12-19T19:34:09.558Z,34.73
2018-12-19T19:36:39.995Z,29.27
2018-12-19T19:39:09.828Z,35.00
2018-12-19T19:41:39.126Z,33.97
2018-12-19T19:44:09.193Z,32.27
2018-12-19T19:46:38.766Z,37.93
2018-12-19T19:49:08.134Z,32.77
2018-12-19T19:51:37.889Z,31.77
2018-12-19T19:54:07.610Z,27.50
2018-12-19T19:56:37.110Z,32.63
2018-12-19T19:59:06.669Z,30.17
2018-12-19T20:01:36.142Z,34.87
2018-12-19T20:04:05.772Z,31.27
2018-12-19T20:06:35.698Z,37.43
2018-12-19T20:09:07.609Z,31.67
2018-12-19T20:11:38.161Z,35.57
2018-12-19T20:14:07.613Z,32.63
2018-12-19T20:16:42.551Z,32.20
2018-12-19T20:19:11.817Z,32.40
2018-12-19T20:21:41.179Z,30.00
2018-12-19T20:24:10.454Z,30.90
2018-12-19T20:26:39.900Z,34.93
2018-12-19T20:29:09.660Z,31.27
2018-12-19T20:31:39.009Z,34.03
2018-12-19T20:34:08.362Z,30.83
2018-12-19T20:36:37.715Z,35.37
2018-12-19T20:39:08.850Z,35.13
2018-12-19T20:41:38.326Z,31.23
2018-12-19T20:44:07.690Z,33.77
2018-12-19T20:46:37.063Z,34.07
2018-12-19T20:49:06.411Z,33.17
2018-12-19T20:51:36.360Z,34.90
2018-12-19T20:54:06.283Z,35.70
2018-12-19T20:56:35.615Z,31.60
2018-12-19T20:59:06.430Z,35.50
2018-12-19T21:01:35.864Z,30.30
2018-12-19T21:04:05.798Z,31.80
2018-12-19T21:06:35.259Z,31.60
2018-12-19T21:09:07.596Z,36.00
2018-12-19T21:11:36.952Z,38.40
2018-12-19T21:14:07.319Z,36.33
2018-12-19T21:16:41.998Z,33.20
2018-12-19T21:19:11.298Z,37.70
2018-12-19T21:21:40.718Z,36.27
2018-12-19T21:24:10.215Z,35.90
2018-12-19T21:26:39.674Z,35.87
2018-12-19T21:29:09.029Z,28.90
2018-12-19T21:31:38.391Z,34.87
2018-12-19T21:34:07.811Z,34.73
2018-12-19T21:36:37.309Z,34.87
2018-12-19T21:39:09.762Z,31.40
2018-12-19T21:41:39.255Z,34.87
2018-12-19T21:44:08.572Z,32.47
2018-12-19T21:46:37.931Z,35.10
2018-12-19T21:49:06.607Z,33.10
2018-12-19T21:51:35.328Z,37.60
2018-12-19T21:54:04.370Z,32.80
2018-12-19T21:56:33.104Z,33.37
2018-12-19T21:59:01.862Z,35.67
2018-12-19T22:01:30.772Z,37.03
2018-12-19T22:03:59.548Z,35.90
2018-12-19T22:06:28.513Z,34.40
2018-12-19T22:08:59.420Z,38.07
2018-12-19T22:11:28.421Z,34.70
2018-12-19T22:14:00.577Z,39.03
2018-12-19T22:16:33.180Z,34.10
2018-12-19T22:19:02.034Z,35.30
2018-12-19T22:21:30.808Z,37.37
2018-12-19T22:23:59.571Z,33.30
2018-12-19T22:26:28.325Z,33.97
2018-12-19T22:28:56.995Z,35.53
2018-12-19T22:31:25.718Z,34.67
2018-12-19T22:33:54.547Z,39.40
2018-12-19T22:36:23.215Z,39.50
2018-12-19T22:38:51.911Z,36.13
2018-12-19T22:41:20.552Z,40.50
2018-12-19T22:43:49.297Z,33.97
2018-12-19T22:46:18.030Z,30.87
2018-12-19T22:48:46.755Z,35.47
2018-12-19T22:51:15.704Z,33.17
2018-12-19T22:53:44.460Z,35.80
2018-12-19T22:56:13.287Z,35.60
2018-12-19T22:58:42.182Z,35.50
2018-12-19T23:01:22.012Z,36.77
2018-12-19T23:03:56.095Z,41.27
2018-12-19T23:06:25.003Z,42.17
2018-12-19T23:08:53.748Z,39.07
2018-12-19T23:11:22.522Z,33.87
2018-12-19T23:13:51.221Z,38.03
2018-12-19T23:16:20.007Z,42.83
2018-12-19T23:18:48.822Z,35.83
2018-12-19T23:21:17.728Z,35.83
2018-12-19T23:23:46.532Z,38.27
2018-12-19T23:26:15.346Z,41.10
2018-12-19T23:28:44.267Z,45.00
2018-12-19T23:31:13.166Z,45.43
2018-12-19T23:33:42.066Z,41.70
2018-12-19T23:36:10.848Z,37.67
2018-12-19T23:38:39.569Z,41.90
2018-12-19T23:41:08.285Z,45.57
2018-12-19T23:43:37.046Z,40.57
2018-12-19T23:46:05.842Z,43.23
2018-12-19T23:48:35.496Z,42.73
2018-12-19T23:51:04.220Z,40.13
2018-12-19T23:53:33.084Z,40.97
2018-12-19T23:56:01.833Z,39.20
2018-12-19T23:58:30.509Z,34.53
